Latest Coastal Weather Observations for Orbost

IDV60701

Issued at 6:15 pm EST Saturday 19 April 2014 (issued every 10 minutes, with the page automatically refreshed every 10 minutes)

About coastal observations | Map of coastal stations | Coastal observations for VIC | Marine services | Other Formats
Station Details ID: 084145 Name: ORBOST Lat: -37.69 Lon: 148.47 Height: 62.65 m
Data from the previous 72 hours. | See also: Recent months at Orbost
Date/Time
EST
Temp

°C
Wind Pressure Rain
since 9am
mm
Weather Cloud Vis
km
Sea
Height
m
Swell
Dir
 
Speed
knots
Gust
knots
hPa Trend Height
m
Period
s
Dir
19/06:00pm 12.6 WNW 1 2 1017.9 - 0.2 - - - - - - -
19/05:30pm 13.2 WSW 2 3 1017.9 - 0.2 - - - - - - -
19/05:00pm 13.5 WSW 3 5 1017.7 - 0.2 - - - - - - -
19/04:30pm 13.7 SW 5 7 1017.6 - 0.2 - - - - - - -
19/04:00pm 14.2 SW 6 9 1017.5 - 0.2 - - - - - - -
19/03:30pm 14.4 SW 9 13 1017.5 - 0.2 - - - - - - -
19/03:00pm 14.7 SW 9 13 1017.3 - 0.2 - - - - - - -
19/02:30pm 16.1 WSW 6 12 1017.4 - 0.2 - - - - - - -
19/02:00pm 14.9 W 7 12 1017.2 - 0.2 - - - - - - -
19/01:30pm 14.6 W 6 9 1017.3 - 0.2 - - - - - - -
19/01:00pm 14.5 W 7 12 1017.5 - 0.2 - - - - - - -
19/12:30pm 15.8 WSW 8 12 1017.9 - 0.2 - - - - - - -
19/12:00pm 12.7 WSW 9 13 1018.4 - 0.2 Recent precip. - - - - - -
19/11:30am 14.8 W 8 12 1018.5 - 0.0 - - - - - - -
19/11:00am 14.5 W 8 11 1018.6 - 0.0 - - - - - - -
19/10:30am 13.2 WNW 7 13 1018.9 - 0.0 - - - - - - -
19/10:00am 12.8 WSW 11 17 1018.9 - 0.0 - - - - - - -
19/09:30am 13.6 W 7 11 1018.6 - 0.0 - - - - - - -
19/09:00am 13.8 W 6 10 1018.6 - 2.6 - - - - - - -
19/08:30am 12.7 W 5 7 1018.7 - 2.6 - - - - - - -
19/08:00am 12.0 WNW 6 10 1018.3 - 2.6 - - - - - - -
19/07:30am 11.0 W 5 8 1018.3 - 2.6 - - - - - - -
19/07:00am 11.5 W 9 13 1017.8 - 2.6 - - - - - - -
19/06:30am 11.2 WNW 6 10 1017.6 - 2.6 - - - - - - -
19/06:00am 11.5 W 7 12 1017.2 - 2.6 - - - - - - -
19/05:30am 11.7 WNW 7 10 1017.1 - 2.6 - - - - - - -
19/05:00am 11.5 W 7 12 1017.0 - 2.6 - - - - - - -
19/04:30am 11.7 W 7 11 1016.9 - 2.6 - - - - - - -
19/04:00am 11.1 WNW 6 10 1016.7 - 2.6 - - - - - - -
19/03:30am 11.2 NW 7 10 1016.7 - 2.6 - - - - - - -
19/03:00am 11.0 NW 7 12 1016.7 - 2.6 - - - - - - -
19/02:30am 10.8 WNW 6 9 1017.0 - 2.6 - - - - - - -
19/02:00am 10.5 NW 6 10 1016.9 - 2.6 - - - - - - -
19/01:30am 10.6 NW 5 12 1017.1 - 2.6 - - - - - - -
19/01:00am 10.7 WNW 6 8 1017.1 - 2.6 - - - - - - -
19/12:30am 10.7 WNW 6 10 1017.1 - 2.6 - - - - - - -
19/12:00am 11.0 WNW 6 12 1017.2 - 2.6 - - - - - - -
 
Date/Time
EST
Temp

°C
Wind Pressure Rain
since 9am
mm
Weather Cloud Vis
km
Sea
Height
m
Swell
Dir
 
Speed
knots
Gust
knots
hPa Trend Height
m
Period
s
Dir
18/11:30pm 11.4 WNW 7 11 1017.4 - 2.6 - - - - - - -
18/11:00pm 11.3 WNW 6 8 1017.4 - 2.6 - - - - - - -
18/10:30pm 11.1 W 5 8 1017.7 - 2.6 - - - - - - -
18/10:00pm 11.6 WNW 5 9 1017.7 - 2.6 - - - - - - -
18/09:30pm 11.9 WNW 6 9 1017.9 - 2.6 - - - - - - -
18/09:00pm 11.1 WNW 4 7 1017.7 - 2.6 - - - - - - -
18/08:30pm 11.7 WNW 4 7 1017.6 - 2.6 - - - - - - -
18/08:00pm 12.1 WNW 5 9 1017.1 - 2.6 - - - - - - -
18/07:30pm 12.4 WNW 6 9 1016.9 - 2.6 - - - - - - -
18/07:00pm 12.9 NW 5 10 1016.6 - 2.6 - - - - - - -
18/06:30pm 13.1 NNW 5 8 1016.2 - 2.6 - - - - - - -
18/06:00pm 13.1 NW 4 6 1015.8 - 2.6 - - - - - - -
18/05:30pm 13.3 NW 4 6 1015.5 - 2.6 - - - - - - -
18/05:00pm 13.4 WNW 5 8 1015.0 - 2.6 - - - - - - -
18/04:30pm 13.5 W 5 10 1014.7 - 2.4 - - - - - - -
18/04:00pm 13.4 W 7 12 1014.1 - 2.2 - - - - - - -
18/03:30pm 13.1 WSW 11 17 1013.9 - 1.6 - - - - - - -
18/03:00pm 14.0 SW 17 26 1013.3 - 0.4 Rain - - - - - -
18/02:34pm 16.2 SW 16 27 1012.6 - 0.0 - - - - - - -
18/02:30pm 16.7 SW 15 24 1012.5 - 0.0 - - - - - - -
18/02:27pm 16.8 SW 15 24 1012.4 - 0.0 - - - - - - -
18/02:00pm 21.0 WNW 8 14 1011.1 - 0.0 - - - - - - -
18/01:30pm 22.0 WNW 9 15 1011.1 - 0.0 - - - - - - -
18/01:00pm 23.0 NW 10 15 1011.1 - 0.0 - - - - - - -
18/12:30pm 22.4 NW 7 10 1011.8 - 0.0 - - - - - - -
18/12:00pm 21.2 NNW 9 13 1012.2 - 0.0 - - - - - - -
18/11:30am 21.8 NW 8 12 1012.7 - 0.0 - - - - - - -
18/11:00am 21.6 NW 7 10 1013.2 - 0.0 - - - - - - -
18/10:30am 19.3 NW 6 9 1013.9 - 0.0 - - - - - - -
18/10:00am 18.9 NW 5 10 1014.0 - 0.0 - - - - - - -
18/09:30am 17.7 W 3 4 1014.4 - 0.0 - - - - - - -
18/09:00am 16.6 NW 5 10 1014.6 - 0.0 - - - - - - -
18/08:30am 14.7 NW 3 7 1014.8 - 0.0 - - - - - - -
18/08:00am 12.4 CALM 0 0 1014.8 - 0.0 - - - - - - -
18/07:30am 11.8 CALM 0 0 1014.8 - 0.0 - - - - - - -
18/07:00am 11.2 CALM 0 0 1014.6 - 0.0 - - - - - - -
18/06:30am 10.9 CALM 0 0 1014.8 - 0.0 - - - - - - -
18/06:00am 11.1 NNW 1 3 1014.8 - 0.0 - - - - - - -
18/05:30am 11.1 N 2 3 1015.1 - 0.0 - - - - - - -
18/05:00am 10.5 CALM 0 0 1015.2 - 0.0 - - - - - - -
18/04:30am 10.3 CALM 0 0 1015.4 - 0.0 - - - - - - -
18/04:00am 10.8 CALM 0 0 1015.6 - 0.0 - - - - - - -
18/03:30am 11.1 CALM 0 0 1015.9 - 0.0 - - - - - - -
18/03:00am 11.1 CALM 0 0 1016.1 - 0.0 - - - - - - -
18/02:30am 10.7 CALM 0 0 1016.5 - 0.0 - - - - - - -
18/02:00am 11.0 CALM 0 0 1016.8 - 0.0 - - - - - - -
18/01:30am 10.9 CALM 0 0 1017.2 - 0.0 - - - - - - -
18/01:00am 11.3 CALM 0 0 1017.3 - 0.0 - - - - - - -
18/12:30am 11.3 CALM 0 0 1017.7 - 0.0 - - - - - - -
18/12:00am 11.2 CALM 0 0 1017.9 - 0.0 - - - - - - -
 
Date/Time
EST
Temp

°C
Wind Pressure Rain
since 9am
mm
Weather Cloud Vis
km
Sea
Height
m
Swell
Dir
 
Speed
knots
Gust
knots
hPa Trend Height
m
Period
s
Dir
17/11:30pm 11.2 CALM 0 0 1018.2 - 0.0 - - - - - - -
17/11:00pm 11.3 CALM 0 0 1018.4 - 0.0 - - - - - - -
17/10:30pm 11.2 CALM 0 0 1018.8 - 0.0 - - - - - - -
17/10:00pm 11.6 NNE 1 2 1019.0 - 0.0 - - - - - - -
17/09:30pm 12.2 CALM 0 0 1019.4 - 0.0 - - - - - - -
17/09:00pm 12.1 CALM 0 0 1019.4 - 0.0 - - - - - - -
17/08:30pm 13.0 CALM 0 0 1019.4 - 0.0 - - - - - - -
17/08:00pm 13.2 CALM 0 0 1019.4 - 0.0 - - - - - - -
17/07:30pm 12.8 CALM 0 0 1019.3 - 0.0 - - - - - - -
17/07:00pm 13.5 ENE 2 4 1019.0 - 0.0 - - - - - - -
17/06:30pm 13.5 E 2 3 1019.1 - 0.0 - - - - - - -
17/06:00pm 14.1 E 1 2 1019.0 - 0.0 - - - - - - -
17/05:30pm 15.9 ESE 1 2 1019.0 - 0.0 - - - - - - -
17/05:00pm 17.3 SE 3 5 1018.9 - 0.0 - - - - - - -
17/04:30pm 18.2 SSE 3 5 1019.1 - 0.0 - - - - - - -
17/04:00pm 18.6 SE 4 7 1019.1 - 0.0 - - - - - - -
17/03:30pm 18.9 SE 4 6 1019.4 - 0.0 - - - - - - -
17/03:00pm 19.2 SSE 4 6 1019.7 - 0.0 - - - - - - -
17/02:30pm 19.7 S 4 8 1019.7 - 0.0 - - - - - - -
17/02:00pm 20.2 WSW 3 7 1019.8 - 0.0 - - - - - - -
17/01:30pm 19.9 SE 1 3 1019.8 - 0.0 - - - - - - -
17/01:00pm 19.8 S 2 4 1020.2 - 0.0 - - - - - - -
17/12:30pm 19.2 SSW 4 6 1020.4 - 0.0 - - - - - - -
17/12:00pm 19.3 SSE 3 6 1021.0 - 0.0 - - - - - - -
17/11:30am 18.8 WSW 3 4 1021.4 - 0.0 - - - - - - -
17/11:00am 18.0 NNE 1 3 1021.6 - 0.0 - - - - - - -
17/10:30am 17.8 W 3 4 1021.6 - 0.0 - - - - - - -
17/10:00am 16.6 WNW 1 4 1021.6 - 0.0 - - - - - - -
17/09:30am 15.6 NW 2 3 1021.7 - 0.0 - - - - - - -
17/09:00am 13.2 CALM 0 2 1021.8 - 0.2 - - - - - - -
17/08:30am 11.8 CALM 0 0 1021.7 - 0.2 - - - - - - -
17/08:00am 11.1 NNW 1 2 1021.5 - 0.2 - - - - - - -
17/07:30am 9.5 CALM 0 0 1021.4 - 0.2 - - - - - - -
17/07:00am 9.0 CALM 0 0 1021.0 - 0.2 - - - - - - -
17/06:30am 9.6 N 3 4 1020.6 - 0.0 - - - - - - -
17/06:00am 8.1 NNW 2 3 1020.5 - 0.0 - - - - - - -
17/05:30am 9.3 CALM 0 0 1020.2 - 0.0 - - - - - - -
17/05:00am 8.9 E 1 2 1020.1 - 0.0 - - - - - - -
17/04:30am 9.6 WNW 1 2 1020.0 - 0.0 - - - - - - -
17/04:00am 9.2 CALM 0 0 1019.8 - 0.0 - - - - - - -
17/03:30am 9.5 N 3 4 1019.7 - 0.0 - - - - - - -
17/03:00am 9.7 CALM 0 0 1019.7 - 0.0 - - - - - - -
17/02:30am 9.5 CALM 0 0 1019.8 - 0.0 - - - - - - -
17/02:00am 9.3 CALM 0 0 1019.7 - 0.0 - - - - - - -
17/01:30am 9.7 NE 1 2 1020.0 - 0.0 - - - - - - -
17/01:00am 9.9 CALM 0 2 1020.2 - 0.0 - - - - - - -
17/12:30am 10.0 N 3 4 1020.3 - 0.0 - - - - - - -
17/12:00am 10.3 CALM 0 0 1020.5 - 0.0 - - - - - - -
 
Date/Time
EST
Temp

°C
Wind Pressure Rain
since 9am
mm
Weather Cloud Vis
km
Sea
Height
m
Swell
Dir
 
Speed
knots
Gust
knots
hPa Trend Height
m
Period
s
Dir
16/11:30pm 10.3 NNE 2 3 1020.5 - 0.0 - - - - - - -
16/11:00pm 10.9 NNW 2 3 1020.7 - 0.0 - - - - - - -
16/10:30pm 10.6 N 2 3 1020.8 - 0.0 - - - - - - -
16/10:00pm 10.9 N 2 2 1020.9 - 0.0 - - - - - - -
16/09:30pm 11.1 N 1 2 1020.9 - 0.0 - - - - - - -
16/09:00pm 11.2 N 2 3 1020.8 - 0.0 - - - - - - -
16/08:30pm 11.9 CALM 0 0 1020.6 - 0.0 - - - - - - -
16/08:00pm 12.1 CALM 0 0 1020.4 - 0.0 - - - - - - -
16/07:30pm 12.7 CALM 0 0 1020.2 - 0.0 - - - - - - -
16/07:00pm 12.8 CALM 0 0 1020.0 - 0.0 - - - - - - -
16/06:30pm 13.5 CALM 0 0 1019.9 - 0.0 - - - - - - -

Other Formats:

Comma delimited format used in spreadsheet applications
http://www.bom.gov.au/fwo/IDV60701/IDV60701.95918.axf

JavaScript Object Notation format (JSON) in row-major order
http://www.bom.gov.au/fwo/IDV60701/IDV60701.95918.json